Time;durP1;ratioP1;P1;durP2;ratioP2;P2;SDS_P1;SDS_P2;PMS_P1;PMS_P2;Temp;Humidity;BMP_temperature;BMP_pressure;BME280_temperature;BME280_humidity;BME280_pressure;Samples;Min_cycle;Max_cycle;Signal;HPM_P1;HPM_P2
2021/07/12 00:01:05;;;;;;;6.07;5.22;;;20.20;99.90;;;;;;5048850;28;20062;-69
2021/07/12 00:03:30;;;;;;;5.20;4.63;;;20.20;99.90;;;;;;5045960;28;20437;-70
2021/07/12 00:05:55;;;;;;;7.38;5.18;;;20.20;99.90;;;;;;5048985;28;20043;-69
2021/07/12 00:08:21;;;;;;;5.97;4.70;;;20.20;99.90;;;;;;5048014;28;20021;-69
2021/07/12 00:10:47;;;;;;;6.00;5.07;;;20.20;99.90;;;;;;5048521;28;20055;-69
2021/07/12 00:13:13;;;;;;;5.88;5.05;;;20.10;99.90;;;;;;5046531;28;20029;-69
2021/07/12 00:15:38;;;;;;;6.72;5.07;;;20.00;99.90;;;;;;5049217;28;20049;-69
2021/07/12 00:18:04;;;;;;;7.10;5.75;;;20.00;99.90;;;;;;5048053;28;20507;-69
2021/07/12 00:20:30;;;;;;;7.35;5.10;;;20.00;99.90;;;;;;5048824;28;20094;-70
2021/07/12 00:22:57;;;;;;;6.57;5.90;;;19.90;99.90;;;;;;5046301;28;20431;-70
2021/07/12 00:25:26;;;;;;;12.45;5.57;;;19.90;99.90;;;;;;5048228;28;20037;-69
2021/07/12 00:27:51;;;;;;;5.75;5.18;;;19.90;99.90;;;;;;5049207;28;20025;-69
2021/07/12 00:30:19;;;;;;;6.65;5.38;;;19.90;99.90;;;;;;5048754;28;20078;-69
2021/07/12 00:32:46;;;;;;;5.93;5.10;;;19.80;99.90;;;;;;5042173;28;20022;-70
2021/07/12 00:35:12;;;;;;;5.55;5.05;;;19.80;99.90;;;;;;5044454;28;20395;-69
2021/07/12 00:37:38;;;;;;;7.47;5.57;;;19.80;99.90;;;;;;5047371;28;20032;-70
2021/07/12 00:40:07;;;;;;;10.40;5.55;;;19.80;99.90;;;;;;5043073;28;20025;-70
2021/07/12 00:42:33;;;;;;;10.80;5.25;;;19.70;99.90;;;;;;5045215;28;20035;-70
2021/07/12 00:44:59;;;;;;;7.55;5.18;;;19.70;99.90;;;;;;5048894;28;20029;-70
2021/07/12 00:47:24;;;;;;;6.22;5.63;;;19.70;99.90;;;;;;5048343;28;20033;-70
2021/07/12 00:49:50;;;;;;;6.65;5.53;;;19.70;99.90;;;;;;5048957;28;20410;-70
2021/07/12 00:52:16;;;;;;;6.57;5.35;;;19.60;99.90;;;;;;5048194;28;20025;-70
2021/07/12 00:54:42;;;;;;;10.68;5.80;;;19.60;99.90;;;;;;5048046;28;20063;-70
2021/07/12 00:57:07;;;;;;;5.97;5.38;;;19.60;99.90;;;;;;5048379;28;20021;-70
2021/07/12 00:59:35;;;;;;;5.55;4.90;;;19.60;99.90;;;;;;5048933;28;20047;-70
2021/07/12 01:02:00;;;;;;;9.30;5.00;;;19.60;99.90;;;;;;5044265;28;20134;-70
2021/07/12 01:04:26;;;;;;;9.48;5.55;;;19.60;99.90;;;;;;5048720;28;20149;-71
2021/07/12 01:06:51;;;;;;;6.13;5.50;;;19.60;99.90;;;;;;5048499;28;20029;-70
2021/07/12 01:09:17;;;;;;;6.63;5.18;;;19.50;99.90;;;;;;5053036;28;20029;-70
2021/07/12 01:12:04;;;;;;;5.90;5.30;;;19.50;99.90;;;;;;5051959;28;20395;-70
2021/07/12 01:14:49;;;;;;;8.80;5.22;;;19.50;99.90;;;;;;5042100;28;20125;-70
2021/07/12 01:17:28;;;;;;;7.55;4.82;;;19.50;99.90;;;;;;5045957;28;20048;-70
2021/07/12 01:20:34;;;;;;;6.47;5.32;;;19.50;99.90;;;;;;5048092;28;20025;-70
2021/07/12 01:23:25;;;;;;;6.63;5.47;;;19.50;99.90;;;;;;5046873;28;20040;-70
2021/07/12 01:26:10;;;;;;;8.23;5.55;;;19.50;99.90;;;;;;5045956;28;20029;-70
2021/07/12 01:29:09;;;;;;;7.07;5.57;;;19.50;99.90;;;;;;5047594;28;20416;-70
2021/07/12 01:32:02;;;;;;;6.32;5.40;;;19.50;99.90;;;;;;5051969;28;20459;-70
2021/07/12 01:34:44;;;;;;;5.68;5.07;;;19.40;99.90;;;;;;5049519;28;20045;-70
2021/07/12 01:37:23;;;;;;;6.47;5.13;;;19.40;99.90;;;;;;5046978;28;20491;-70
2021/07/12 01:39:57;;;;;;;7.03;4.85;;;19.40;99.90;;;;;;5051839;28;20037;-70
2021/07/12 01:42:35;;;;;;;5.88;5.28;;;19.40;99.90;;;;;;5050855;28;20082;-70
2021/07/12 01:45:08;;;;;;;7.10;5.43;;;19.40;99.90;;;;;;5047622;28;20025;-70
2021/07/12 01:47:41;;;;;;;7.32;5.32;;;19.40;99.90;;;;;;5050774;28;20503;-70
2021/07/12 01:50:36;;;;;;;7.60;5.32;;;19.40;99.90;;;;;;5050869;28;20034;-70
2021/07/12 01:53:18;;;;;;;6.95;5.55;;;19.40;99.90;;;;;;5042855;28;20037;-70
2021/07/12 01:55:54;;;;;;;5.80;5.20;;;19.40;99.90;;;;;;5049295;28;20055;-69
2021/07/12 01:58:33;;;;;;;6.25;5.30;;;19.40;99.90;;;;;;5048983;28;20108;-70
2021/07/12 02:01:00;;;;;;;6.93;5.80;;;19.40;99.90;;;;;;5044450;28;20028;-70
2021/07/12 02:03:28;;;;;;;8.82;5.68;;;19.40;99.90;;;;;;5051300;28;20063;-70
2021/07/12 02:05:57;;;;;;;6.15;5.55;;;19.30;99.90;;;;;;5049361;28;20040;-70
2021/07/12 02:08:23;;;;;;;6.10;5.50;;;19.30;99.90;;;;;;5050967;28;20024;-70
2021/07/12 02:10:51;;;;;;;7.25;5.15;;;19.30;99.90;;;;;;5049332;28;20115;-70
2021/07/12 02:13:18;;;;;;;6.43;5.03;;;19.30;99.90;;;;;;5047551;28;20036;-70
2021/07/12 02:15:46;;;;;;;7.28;5.63;;;19.30;99.90;;;;;;5049868;28;20063;-70
2021/07/12 02:18:15;;;;;;;7.72;6.13;;;19.20;99.90;;;;;;5050961;28;20021;-70
2021/07/12 02:20:44;;;;;;;7.30;6.00;;;19.20;99.90;;;;;;5051338;28;20025;-70
2021/07/12 02:23:10;;;;;;;9.75;6.07;;;19.20;99.90;;;;;;5046745;28;20025;-70
2021/07/12 02:25:38;;;;;;;7.45;6.30;;;19.20;99.90;;;;;;5044772;28;20032;-70
2021/07/12 02:28:04;;;;;;;7.88;5.55;;;19.20;99.90;;;;;;5050752;28;20032;-70
2021/07/12 02:30:30;;;;;;;7.47;6.00;;;19.10;99.90;;;;;;5049639;28;20158;-70
2021/07/12 02:32:56;;;;;;;7.15;6.18;;;19.10;99.90;;;;;;5049848;28;20127;-70
2021/07/12 02:35:22;;;;;;;9.38;6.13;;;19.10;99.90;;;;;;5049055;28;20033;-70
2021/07/12 02:37:49;;;;;;;7.00;6.30;;;19.10;99.90;;;;;;5050662;28;20033;-70
2021/07/12 02:40:17;;;;;;;6.95;6.15;;;19.10;99.90;;;;;;5048380;28;20021;-70
2021/07/12 02:42:46;;;;;;;8.18;6.45;;;19.10;99.90;;;;;;5046132;28;20029;-70
2021/07/12 02:45:13;;;;;;;7.50;6.28;;;19.10;99.90;;;;;;5050426;28;20025;-69
2021/07/12 02:47:39;;;;;;;7.20;6.30;;;19.00;99.90;;;;;;5049351;28;20033;-70
2021/07/12 02:50:09;;;;;;;6.72;5.97;;;19.10;99.90;;;;;;5049472;28;20040;-69
2021/07/12 02:52:58;;;;;;;10.55;6.65;;;19.10;99.90;;;;;;5046959;28;20048;-70
2021/07/12 02:55:24;;;;;;;7.32;6.35;;;19.00;99.90;;;;;;5043180;28;20110;-70
2021/07/12 02:57:49;;;;;;;9.65;6.78;;;19.00;99.90;;;;;;5049745;28;20048;-70
2021/07/12 03:00:15;;;;;;;7.57;6.40;;;19.00;99.90;;;;;;5048066;28;20021;-70
2021/07/12 03:02:42;;;;;;;9.15;6.63;;;19.00;99.90;;;;;;5048677;28;20072;-70
2021/07/12 03:05:09;;;;;;;7.40;6.45;;;18.90;99.90;;;;;;5046691;28;20404;-70
2021/07/12 03:07:41;;;;;;;7.63;6.47;;;18.90;99.90;;;;;;5049482;28;20106;-70
2021/07/12 03:10:15;;;;;;;10.57;6.60;;;18.90;99.90;;;;;;5049516;28;20226;-70
2021/07/12 03:12:47;;;;;;;7.97;6.68;;;18.80;99.90;;;;;;5048697;28;20089;-70
2021/07/12 03:15:14;;;;;;;9.02;6.78;;;18.90;99.90;;;;;;5048787;28;20419;-70
2021/07/12 03:17:53;;;;;;;8.90;6.35;;;18.80;99.90;;;;;;5049454;28;20032;-70
2021/07/12 03:20:20;;;;;;;6.60;5.90;;;18.80;99.90;;;;;;5049454;28;20028;-70
2021/07/12 03:22:53;;;;;;;12.20;7.25;;;18.80;99.90;;;;;;5042438;28;20028;-70
2021/07/12 03:25:23;;;;;;;7.75;6.82;;;18.80;99.90;;;;;;5040999;28;20037;-70
2021/07/12 03:27:53;;;;;;;8.68;7.25;;;18.80;99.90;;;;;;5049250;28;20491;-70
2021/07/12 03:30:18;;;;;;;9.23;7.10;;;18.80;99.90;;;;;;5048382;28;20048;-70
2021/07/12 03:32:46;;;;;;;11.63;6.90;;;18.80;99.90;;;;;;5044694;28;20507;-70
2021/07/12 03:35:26;;;;;;;8.25;7.20;;;18.80;99.90;;;;;;5049745;28;20033;-70
2021/07/12 03:37:52;;;;;;;9.52;7.78;;;18.80;99.90;;;;;;5048934;28;20021;-70
2021/07/12 03:40:18;;;;;;;8.23;7.43;;;18.90;99.90;;;;;;5043973;28;20029;-70
2021/07/12 03:42:45;;;;;;;10.40;6.70;;;18.90;99.90;;;;;;5048750;28;20029;-70
2021/07/12 03:45:11;;;;;;;9.50;6.88;;;18.90;99.90;;;;;;5049557;28;20032;-70
2021/07/12 03:47:38;;;;;;;8.60;7.15;;;19.00;99.90;;;;;;5049100;28;20043;-70
2021/07/12 03:50:11;;;;;;;7.50;6.70;;;19.00;99.90;;;;;;5046821;28;20029;-70
2021/07/12 03:52:47;;;;;;;8.35;6.70;;;19.00;99.90;;;;;;5048839;28;20033;-70
2021/07/12 03:55:16;;;;;;;8.07;7.28;;;19.00;99.90;;;;;;5040820;28;20118;-70
2021/07/12 03:57:42;;;;;;;10.00;7.78;;;19.10;99.90;;;;;;5048231;28;20025;-70
2021/07/12 04:00:10;;;;;;;12.13;7.15;;;19.10;99.90;;;;;;5040272;28;20030;-70
2021/07/12 04:02:37;;;;;;;10.73;7.63;;;19.10;99.90;;;;;;5047307;28;20024;-70
2021/07/12 04:05:04;;;;;;;8.63;7.10;;;19.10;99.90;;;;;;5045585;28;20480;-70
2021/07/12 04:07:29;;;;;;;9.85;7.70;;;19.20;99.90;;;;;;5049115;28;20036;-70
2021/07/12 04:09:55;;;;;;;8.25;6.75;;;19.20;99.90;;;;;;5046480;28;20018;-70
2021/07/12 04:12:23;;;;;;;10.98;7.63;;;19.20;99.90;;;;;;5035013;28;20021;-70
2021/07/12 04:14:53;;;;;;;8.65;6.82;;;19.20;99.90;;;;;;5047869;28;20047;-70
2021/07/12 04:17:19;;;;;;;12.25;6.70;;;19.20;99.90;;;;;;5049041;28;20021;-70
2021/07/12 04:19:45;;;;;;;8.32;7.18;;;19.20;99.90;;;;;;5048115;28;20021;-70
2021/07/12 04:22:31;;;;;;;8.43;7.53;;;19.20;99.90;;;;;;5048111;28;20040;-70
2021/07/12 04:24:56;;;;;;;8.05;7.22;;;19.20;99.90;;;;;;5047690;28;20036;-70
2021/07/12 04:27:22;;;;;;;9.25;7.53;;;19.30;99.90;;;;;;5049481;28;20375;-70
2021/07/12 04:29:48;;;;;;;19.35;7.07;;;19.30;99.90;;;;;;5049047;28;20040;-70
2021/07/12 04:32:13;;;;;;;9.15;7.28;;;19.30;99.90;;;;;;5048476;28;20083;-70
2021/07/12 04:34:39;;;;;;;9.75;6.80;;;19.30;99.90;;;;;;5045024;28;20048;-70
2021/07/12 04:37:05;;;;;;;8.70;6.50;;;19.40;99.90;;;;;;5045703;28;20356;-69
2021/07/12 04:39:30;;;;;;;16.52;7.78;;;19.40;99.90;;;;;;5046051;28;20049;-70
2021/07/12 04:41:56;;;;;;;10.63;7.32;;;19.40;99.90;;;;;;5043914;28;20029;-70
2021/07/12 04:44:22;;;;;;;9.20;7.13;;;19.50;99.90;;;;;;5046432;28;20031;-70
2021/07/12 04:46:48;;;;;;;9.65;7.63;;;19.50;99.90;;;;;;5048610;28;20047;-70
2021/07/12 04:49:14;;;;;;;7.95;7.00;;;19.60;99.90;;;;;;5048300;28;20380;-70
2021/07/12 04:51:40;;;;;;;7.57;6.82;;;19.60;99.90;;;;;;5048716;28;20063;-70
2021/07/12 04:54:06;;;;;;;8.98;7.43;;;19.60;99.90;;;;;;5043749;28;20357;-70
2021/07/12 04:56:31;;;;;;;8.82;6.80;;;19.70;99.90;;;;;;5048173;28;20061;-70
2021/07/12 04:58:57;;;;;;;8.15;7.03;;;19.70;99.90;;;;;;5051087;28;20025;-70
2021/07/12 05:01:24;;;;;;;10.80;8.00;;;19.80;99.90;;;;;;5052518;28;20013;-70
2021/07/12 05:03:49;;;;;;;9.50;7.22;;;19.80;99.90;;;;;;5056948;28;20035;-70
2021/07/12 05:06:15;;;;;;;11.65;7.82;;;19.80;99.90;;;;;;5056842;28;20033;-70
2021/07/12 05:08:40;;;;;;;7.32;6.63;;;19.80;99.90;;;;;;5052549;28;20029;-70
2021/07/12 05:11:06;;;;;;;9.57;7.57;;;19.80;99.90;;;;;;5047044;28;20157;-70
2021/07/12 05:13:34;;;;;;;8.73;7.18;;;19.90;99.90;;;;;;5047680;28;20024;-70
2021/07/12 05:16:00;;;;;;;19.60;7.82;;;19.90;99.90;;;;;;5051579;28;20053;-70
2021/07/12 05:18:25;;;;;;;9.85;7.15;;;20.00;99.90;;;;;;5051650;28;20033;-70
2021/07/12 05:20:51;;;;;;;10.57;7.28;;;20.00;99.90;;;;;;5047392;28;20391;-70
2021/07/12 05:23:18;;;;;;;8.27;7.47;;;20.00;99.90;;;;;;5048889;28;20705;-70
2021/07/12 05:26:02;;;;;;;11.77;7.60;;;20.00;99.90;;;;;;5051806;28;20036;-70
2021/07/12 05:28:27;;;;;;;8.45;7.53;;;20.10;99.90;;;;;;5051201;28;20111;-70
2021/07/12 05:30:53;;;;;;;9.23;6.88;;;20.10;99.90;;;;;;5050673;28;20564;-71
2021/07/12 05:33:18;;;;;;;11.68;7.70;;;20.10;99.90;;;;;;5050887;28;20037;-71
2021/07/12 05:35:44;;;;;;;8.85;7.30;;;20.10;99.90;;;;;;5052095;28;20095;-70
2021/07/12 05:38:09;;;;;;;9.55;7.50;;;20.10;99.90;;;;;;5051021;28;20031;-70
2021/07/12 05:40:36;;;;;;;14.18;8.35;;;20.10;99.90;;;;;;5049163;28;20029;-70
2021/07/12 05:43:01;;;;;;;9.80;8.05;;;20.10;99.90;;;;;;5048841;28;20021;-70
2021/07/12 05:45:27;;;;;;;9.23;7.65;;;20.10;99.90;;;;;;5051862;28;20036;-70
2021/07/12 05:47:53;;;;;;;9.98;8.00;;;20.20;99.90;;;;;;5048754;28;20032;-70
2021/07/12 05:50:18;;;;;;;9.75;7.82;;;20.20;99.90;;;;;;5051021;28;20037;-70
2021/07/12 05:52:44;;;;;;;9.00;7.70;;;20.20;99.90;;;;;;5050008;28;20033;-70
2021/07/12 05:55:10;;;;;;;8.88;7.97;;;20.20;99.90;;;;;;5050827;28;20036;-71
2021/07/12 05:57:36;;;;;;;9.57;7.57;;;20.20;99.90;;;;;;5050442;28;20033;-70
2021/07/12 06:00:07;;;;;;;9.98;8.32;;;20.30;99.90;;;;;;5051236;28;20021;-71
2021/07/12 06:02:32;;;;;;;8.55;7.75;;;20.30;99.90;;;;;;5049114;28;20036;-70
2021/07/12 06:04:58;;;;;;;10.50;8.13;;;20.30;99.90;;;;;;5051418;28;20254;-70
2021/07/12 06:07:23;;;;;;;11.00;7.85;;;20.30;99.90;;;;;;5051151;28;20033;-70
2021/07/12 06:09:49;;;;;;;10.88;8.15;;;20.30;99.90;;;;;;5049944;28;20108;-70
2021/07/12 06:12:15;;;;;;;12.48;8.25;;;20.40;99.90;;;;;;5048186;28;20078;-70
2021/07/12 06:14:40;;;;;;;9.15;7.80;;;20.40;99.90;;;;;;5045245;28;20533;-70
2021/07/12 06:17:06;;;;;;;9.88;8.20;;;20.40;99.90;;;;;;5048356;28;20130;-71
2021/07/12 06:19:32;;;;;;;11.55;8.45;;;20.40;99.90;;;;;;5050843;28;20028;-71
2021/07/12 06:21:57;;;;;;;10.23;7.90;;;20.40;99.90;;;;;;5047796;28;20553;-70
2021/07/12 06:24:22;;;;;;;9.55;8.55;;;20.50;99.90;;;;;;5046596;28;20027;-69
2021/07/12 06:26:48;;;;;;;10.48;8.18;;;20.50;99.90;;;;;;5048512;28;20047;-71
2021/07/12 06:29:21;;;;;;;11.68;8.57;;;20.50;99.90;;;;;;5050400;28;20017;-70
2021/07/12 06:31:48;;;;;;;10.07;7.60;;;20.60;99.90;;;;;;5050416;28;20036;-70
2021/07/12 06:34:13;;;;;;;9.05;8.13;;;20.60;99.90;;;;;;5047570;28;20032;-69
2021/07/12 06:36:39;;;;;;;11.38;8.10;;;20.70;99.90;;;;;;5049385;28;20090;-70
2021/07/12 06:39:05;;;;;;;13.25;8.27;;;20.70;99.90;;;;;;5049505;28;20104;-69
2021/07/12 06:41:31;;;;;;;13.50;8.68;;;20.70;99.90;;;;;;5049458;28;20028;-71
2021/07/12 06:43:57;;;;;;;11.75;8.65;;;20.70;99.90;;;;;;5050035;28;20128;-69
2021/07/12 06:46:22;;;;;;;10.10;7.82;;;20.80;99.90;;;;;;5049737;28;20033;-70
2021/07/12 06:48:48;;;;;;;10.48;8.20;;;20.80;99.90;;;;;;5047510;28;20480;-70
2021/07/12 06:51:13;;;;;;;9.23;7.90;;;21.00;99.90;;;;;;5050502;28;20052;-71
2021/07/12 06:53:39;;;;;;;8.15;7.35;;;21.00;99.90;;;;;;5049806;28;20025;-71
2021/07/12 06:56:05;;;;;;;11.43;7.32;;;21.20;99.90;;;;;;5049677;28;20421;-72
2021/07/12 06:58:31;;;;;;;10.40;7.18;;;21.30;99.90;;;;;;5041731;28;20029;-70
2021/07/12 07:00:56;;;;;;;6.80;6.13;;;21.50;99.90;;;;;;5049514;28;20040;-71
2021/07/12 07:03:22;;;;;;;8.68;7.63;;;21.50;99.90;;;;;;5047135;28;20021;-72
2021/07/12 07:05:48;;;;;;;9.80;7.47;;;21.60;99.90;;;;;;5050228;28;20116;-71
2021/07/12 07:08:13;;;;;;;9.00;7.60;;;21.70;99.90;;;;;;5046973;28;20186;-72
2021/07/12 07:10:39;;;;;;;7.57;6.70;;;21.80;99.90;;;;;;5038210;28;20107;-72
2021/07/12 07:13:04;;;;;;;8.50;6.07;;;21.90;99.90;;;;;;5045055;28;20415;-72
2021/07/12 07:15:30;;;;;;;7.25;6.32;;;22.00;99.90;;;;;;5049211;28;20056;-72
2021/07/12 07:17:55;;;;;;;7.18;6.47;;;22.10;99.90;;;;;;5044461;28;20109;-72
2021/07/12 07:20:21;;;;;;;9.02;6.18;;;22.20;99.90;;;;;;5046272;28;20017;-72
2021/07/12 07:22:46;;;;;;;13.82;7.20;;;22.30;99.90;;;;;;5048052;28;20078;-72
2021/07/12 07:25:12;;;;;;;7.30;6.60;;;22.30;99.90;;;;;;5049435;28;20033;-72
2021/07/12 07:27:39;;;;;;;8.82;6.57;;;22.40;99.90;;;;;;5048730;28;20037;-71
2021/07/12 07:30:06;;;;;;;6.88;6.18;;;22.40;99.90;;;;;;5046101;28;20021;-71
2021/07/12 07:32:31;;;;;;;8.75;6.30;;;22.40;99.90;;;;;;5046281;28;20091;-72
2021/07/12 07:34:57;;;;;;;6.77;4.57;;;22.50;99.90;;;;;;5046627;28;20032;-73
2021/07/12 07:37:22;;;;;;;6.82;6.13;;;22.50;99.90;;;;;;5049195;28;20025;-73
2021/07/12 07:39:48;;;;;;;10.45;6.03;;;22.60;99.90;;;;;;5047033;28;20021;-75
2021/07/12 07:42:13;;;;;;;5.97;5.38;;;22.70;99.90;;;;;;5045623;28;20426;-73
2021/07/12 07:44:39;;;;;;;7.10;4.28;;;22.80;99.90;;;;;;5048658;28;20104;-73
2021/07/12 07:47:04;;;;;;;7.15;5.65;;;22.80;99.90;;;;;;5048855;28;20029;-73
2021/07/12 07:49:59;;;;;;;6.05;5.03;;;22.90;99.90;;;;;;5046904;28;20090;-72
2021/07/12 07:52:25;;;;;;;5.00;4.50;;;23.10;99.90;;;;;;5046044;28;20518;-73
2021/07/12 07:54:51;;;;;;;8.40;4.45;;;23.20;99.90;;;;;;5043294;28;20041;-73
2021/07/12 07:57:17;;;;;;;5.45;4.80;;;23.30;99.90;;;;;;5048355;28;20029;-74
2021/07/12 07:59:43;;;;;;;5.72;5.22;;;23.40;99.90;;;;;;5043138;28;20445;-73
2021/07/12 08:02:09;;;;;;;7.43;6.30;;;23.50;99.90;;;;;;5036814;28;20682;-74
2021/07/12 08:04:34;;;;;;;6.93;6.22;;;23.50;99.90;;;;;;5044606;28;20104;-73
2021/07/12 08:07:05;;;;;;;5.50;4.85;;;23.50;99.90;;;;;;5045210;28;20067;-73
2021/07/12 08:09:30;;;;;;;6.00;5.37;;;23.50;99.90;;;;;;5048743;28;20053;-73
2021/07/12 08:11:55;;;;;;;8.32;5.72;;;23.40;99.90;;;;;;5049162;28;20056;-74
2021/07/12 08:14:21;;;;;;;7.70;6.90;;;23.30;99.90;;;;;;5048190;28;20021;-73
2021/07/12 08:16:48;;;;;;;8.88;7.97;;;23.30;99.90;;;;;;5042594;28;20124;-74
2021/07/12 08:19:14;;;;;;;6.68;5.40;;;23.40;99.90;;;;;;5046130;28;20611;-73
2021/07/12 08:21:40;;;;;;;7.30;6.63;;;23.40;99.90;;;;;;5046753;28;20025;-74
2021/07/12 08:24:06;;;;;;;8.80;7.13;;;23.30;99.90;;;;;;5053839;28;20028;-73
2021/07/12 08:26:31;;;;;;;8.05;5.28;;;23.30;99.90;;;;;;5050143;28;20033;-73
2021/07/12 08:28:58;;;;;;;5.40;4.90;;;23.40;99.90;;;;;;5053258;28;20198;-74
2021/07/12 08:31:23;;;;;;;8.05;7.25;;;23.40;99.90;;;;;;5050432;28;20170;-73
2021/07/12 08:33:49;;;;;;;5.03;4.53;;;23.40;99.90;;;;;;5052552;28;20119;-74
2021/07/12 08:36:16;;;;;;;8.82;7.93;;;23.40;99.90;;;;;;5055077;28;20024;-74
2021/07/12 08:38:42;;;;;;;10.85;6.80;;;23.40;99.90;;;;;;5045893;28;20424;-74
2021/07/12 08:41:07;;;;;;;7.30;5.35;;;23.40;99.90;;;;;;5049561;28;20024;-73
2021/07/12 08:43:34;;;;;;;9.10;5.40;;;23.50;99.90;;;;;;5052921;28;20032;-73
2021/07/12 08:45:59;;;;;;;7.38;6.65;;;23.60;99.80;;;;;;5058419;28;20567;-71
2021/07/12 08:48:25;;;;;;;7.13;6.35;;;23.60;99.00;;;;;;5047029;28;20117;-72
2021/07/12 08:50:51;;;;;;;6.53;5.82;;;23.70;99.90;;;;;;5050339;28;20040;-72
2021/07/12 08:53:16;;;;;;;11.32;6.72;;;23.80;99.90;;;;;;5052825;28;20155;-72
2021/07/12 08:55:44;;;;;;;6.90;5.88;;;23.80;99.90;;;;;;5051967;28;20221;-72
2021/07/12 08:58:12;;;;;;;5.68;5.18;;;23.80;99.90;;;;;;5051533;28;20036;-72
2021/07/12 09:01:09;;;;;;;6.88;5.53;;;23.80;99.50;;;;;;5048640;28;20037;-72
2021/07/12 09:03:39;;;;;;;5.88;5.38;;;24.00;99.20;;;;;;5041794;28;20029;-71
2021/07/12 09:06:12;;;;;;;8.27;6.32;;;24.00;98.50;;;;;;5051900;28;20112;-72
2021/07/12 09:08:51;;;;;;;7.18;6.32;;;24.10;98.00;;;;;;5044375;28;20388;-73
2021/07/12 09:11:21;;;;;;;7.78;5.72;;;24.20;98.30;;;;;;5046988;28;20027;-73
2021/07/12 09:13:54;;;;;;;5.45;4.88;;;24.20;97.40;;;;;;5045859;28;20124;-74
2021/07/12 09:16:42;;;;;;;9.20;7.00;;;24.30;94.70;;;;;;5051867;28;20064;-73
2021/07/12 09:19:28;;;;;;;5.97;5.13;;;24.30;98.90;;;;;;5051464;28;20074;-73
2021/07/12 09:22:03;;;;;;;8.68;7.22;;;24.40;98.60;;;;;;5048343;28;20067;-74
2021/07/12 09:24:49;;;;;;;7.88;5.78;;;24.40;99.10;;;;;;5040631;28;20029;-74
2021/07/12 09:27:19;;;;;;;7.68;5.30;;;24.50;97.60;;;;;;5041356;28;20052;-73
2021/07/12 09:29:47;;;;;;;6.75;5.97;;;24.70;97.00;;;;;;5049654;28;20652;-74
2021/07/12 09:32:18;;;;;;;6.68;6.07;;;24.70;95.80;;;;;;5052075;28;20031;-74
2021/07/12 09:34:48;;;;;;;6.25;5.63;;;24.70;96.30;;;;;;5050178;28;20400;-73
2021/07/12 09:37:19;;;;;;;5.30;4.72;;;24.70;94.60;;;;;;5051406;28;20040;-74
2021/07/12 09:39:49;;;;;;;7.75;6.85;;;24.80;94.80;;;;;;5039773;28;20119;-74
2021/07/12 09:42:20;;;;;;;4.82;4.38;;;24.90;96.00;;;;;;5051132;28;20484;-74
2021/07/12 09:44:48;;;;;;;5.70;5.20;;;24.90;92.50;;;;;;5050270;28;20530;-74
2021/07/12 09:47:23;;;;;;;9.95;6.10;;;24.80;94.70;;;;;;5044319;28;20033;-74
2021/07/12 09:49:49;;;;;;;5.35;4.75;;;24.80;94.90;;;;;;5049823;28;20037;-73
2021/07/12 09:52:17;;;;;;;7.03;4.55;;;24.90;94.50;;;;;;5051488;28;20052;-74
2021/07/12 09:54:48;;;;;;;5.75;5.20;;;25.00;92.50;;;;;;5051219;28;20577;-74
2021/07/12 09:57:20;;;;;;;4.72;4.28;;;25.00;94.10;;;;;;5050387;28;20041;-73
2021/07/12 09:59:59;;;;;;;5.05;4.55;;;25.00;93.00;;;;;;5049068;28;20108;-73
2021/07/12 10:02:25;;;;;;;4.80;4.40;;;25.00;94.00;;;;;;5041906;28;20086;-73
2021/07/12 10:05:05;;;;;;;5.72;5.22;;;25.20;91.00;;;;;;5082477;28;20029;-73
2021/07/12 10:07:30;;;;;;;5.30;4.80;;;25.30;93.20;;;;;;5047514;28;20388;-74
2021/07/12 10:09:57;;;;;;;4.93;4.53;;;25.20;93.20;;;;;;5045505;28;20028;-74
2021/07/12 10:12:24;;;;;;;5.82;5.30;;;25.10;92.00;;;;;;5046090;28;20044;-74
2021/07/12 10:14:50;;;;;;;5.82;4.70;;;25.30;94.10;;;;;;5048939;28;21729;-73
2021/07/12 10:17:44;;;;;;;7.00;4.50;;;25.40;93.70;;;;;;5048088;28;20032;-75
2021/07/12 10:20:12;;;;;;;6.30;4.93;;;25.40;90.60;;;;;;5046754;28;20399;-72
2021/07/12 10:22:42;;;;;;;5.78;5.22;;;25.50;93.00;;;;;;5047281;28;20545;-73
2021/07/12 10:25:10;;;;;;;6.88;5.45;;;25.60;93.40;;;;;;5035180;28;20021;-72
2021/07/12 10:28:06;;;;;;;6.05;5.20;;;25.80;93.10;;;;;;5044193;28;20029;-72
2021/07/12 10:30:35;;;;;;;10.00;6.03;;;25.90;91.60;;;;;;5035998;28;20087;-72
2021/07/12 10:33:09;;;;;;;5.95;5.43;;;25.90;92.50;;;;;;5045836;28;20787;-72
2021/07/12 10:35:45;;;;;;;5.38;4.88;;;26.00;95.50;;;;;;5041952;28;20033;-72
2021/07/12 10:38:24;;;;;;;7.65;5.57;;;26.20;92.10;;;;;;5043917;28;20369;-72
2021/07/12 10:40:57;;;;;;;7.07;5.80;;;26.40;92.30;;;;;;5046859;28;20037;-73
2021/07/12 10:43:41;;;;;;;6.20;5.60;;;26.50;90.10;;;;;;5046119;28;20036;-73
2021/07/12 10:46:07;;;;;;;7.15;6.03;;;26.40;89.90;;;;;;5044242;28;20036;-73
2021/07/12 10:48:37;;;;;;;8.60;5.75;;;26.40;89.50;;;;;;5045853;28;20442;-73
2021/07/12 10:51:19;;;;;;;6.20;5.47;;;26.30;90.50;;;;;;5046303;28;20032;-73
2021/07/12 10:53:56;;;;;;;6.57;5.78;;;26.30;91.30;;;;;;5047211;28;20045;-73
2021/07/12 10:56:21;;;;;;;8.43;6.47;;;26.40;91.60;;;;;;5041809;28;20086;-73
2021/07/12 10:58:48;;;;;;;6.82;5.85;;;26.30;91.00;;;;;;5048614;28;20037;-75
2021/07/12 11:01:18;;;;;;;8.38;5.43;;;26.10;91.10;;;;;;5049886;28;20487;-75
2021/07/12 11:03:46;;;;;;;6.55;5.95;;;26.10;92.10;;;;;;5049687;28;20033;-74
2021/07/12 11:06:15;;;;;;;6.88;6.20;;;26.00;91.00;;;;;;5045111;28;20037;-73
2021/07/12 11:08:44;;;;;;;7.40;6.70;;;25.90;91.60;;;;;;5047428;28;20039;-75
2021/07/12 11:11:19;;;;;;;7.22;6.53;;;25.80;91.90;;;;;;5048614;28;20032;-73
2021/07/12 11:14:18;;;;;;;6.90;6.20;;;25.80;93.40;;;;;;5048293;28;20052;-73
2021/07/12 11:16:46;;;;;;;6.38;5.55;;;25.80;90.80;;;;;;5042513;28;20590;-74
2021/07/12 11:19:27;;;;;;;5.88;5.05;;;25.90;90.40;;;;;;5047229;28;20136;-73
2021/07/12 11:22:11;;;;;;;12.05;5.57;;;25.90;91.60;;;;;;5046443;28;20725;-74
2021/07/12 11:24:37;;;;;;;8.02;6.53;;;26.00;90.80;;;;;;5049486;28;20540;-74
2021/07/12 11:27:08;;;;;;;8.02;6.40;;;26.30;90.80;;;;;;5046972;28;20025;-73
2021/07/12 11:29:36;;;;;;;6.80;6.10;;;26.50;88.50;;;;;;5048398;28;20158;-73
2021/07/12 11:32:01;;;;;;;6.65;6.03;;;26.60;85.10;;;;;;5048031;28;20037;-75
2021/07/12 11:34:29;;;;;;;6.05;5.53;;;26.60;87.40;;;;;;5048777;28;20027;-74
2021/07/12 11:36:58;;;;;;;7.28;6.55;;;26.80;88.00;;;;;;5044231;28;20029;-74
2021/07/12 11:39:27;;;;;;;5.38;4.88;;;27.30;83.20;;;;;;5048988;28;20049;-74
2021/07/12 11:41:53;;;;;;;6.93;5.63;;;27.50;79.80;;;;;;5044151;28;20170;-73
2021/07/12 11:44:19;;;;;;;7.53;6.70;;;27.70;81.20;;;;;;5047829;28;20025;-74
2021/07/12 11:46:45;;;;;;;6.53;5.93;;;27.50;83.60;;;;;;5044137;28;20388;-75
2021/07/12 11:49:13;;;;;;;9.63;7.03;;;27.10;84.00;;;;;;5047932;28;20407;-74
2021/07/12 11:51:40;;;;;;;6.65;5.93;;;26.80;87.10;;;;;;5048826;28;20529;-74
2021/07/12 11:54:17;;;;;;;8.02;7.25;;;26.30;85.10;;;;;;5049551;28;20474;-74
2021/07/12 11:56:57;;;;;;;7.43;6.63;;;26.00;90.00;;;;;;5046675;28;20399;-75
2021/07/12 11:59:43;;;;;;;7.85;7.05;;;25.90;88.40;;;;;;5046174;28;20428;-74
2021/07/12 12:02:11;;;;;;;8.57;7.10;;;26.90;88.50;;;;;;5048260;28;20063;-74
2021/07/12 12:04:58;;;;;;;8.32;7.38;;;27.40;85.00;;;;;;5046493;28;20101;-75
2021/07/12 12:07:30;;;;;;;9.30;6.65;;;28.20;83.80;;;;;;5038240;28;20570;-74
2021/07/12 12:09:57;;;;;;;6.43;5.32;;;29.30;72.80;;;;;;5048424;28;20036;-74
2021/07/12 12:12:28;;;;;;;5.00;4.50;;;30.10;72.90;;;;;;5040106;28;20041;-72
2021/07/12 12:15:04;;;;;;;5.57;5.07;;;30.90;65.70;;;;;;5041143;28;20559;-72
2021/07/12 12:17:32;;;;;;;5.57;5.07;;;31.20;65.10;;;;;;5039390;28;20532;-73
2021/07/12 12:20:08;;;;;;;5.45;4.95;;;31.40;65.40;;;;;;5047701;28;20039;-73
2021/07/12 12:22:34;;;;;;;5.47;4.97;;;31.70;66.00;;;;;;5047973;28;20108;-73
2021/07/12 12:25:05;;;;;;;8.07;5.50;;;32.30;59.20;;;;;;5045140;28;20035;-73
2021/07/12 12:27:30;;;;;;;6.63;6.03;;;31.80;59.60;;;;;;5048418;28;20032;-73
2021/07/12 12:29:56;;;;;;;7.28;6.57;;;30.90;62.40;;;;;;5057034;28;20371;-73
2021/07/12 12:32:34;;;;;;;5.90;5.40;;;30.30;65.80;;;;;;5040914;28;20025;-73
2021/07/12 12:35:05;;;;;;;5.32;4.90;;;29.60;64.40;;;;;;5048964;28;20106;-73
2021/07/12 12:37:40;;;;;;;;;;;28.80;66.90;;;;;;5049130;28;20617;-73
2021/07/12 12:40:16;;;;;;;6.05;5.07;;;28.90;68.10;;;;;;5040659;28;20379;-73
2021/07/12 12:42:41;;;;;;;7.55;5.28;;;29.60;67.80;;;;;;5042110;28;20084;-72
2021/07/12 12:45:07;;;;;;;5.50;4.82;;;30.70;62.20;;;;;;5048973;28;20021;-73
2021/07/12 12:47:33;;;;;;;6.38;5.55;;;30.50;59.70;;;;;;5043674;28;20026;-73
2021/07/12 12:50:11;;;;;;;4.95;4.55;;;31.20;61.50;;;;;;5048850;28;20037;-74
2021/07/12 12:52:36;;;;;;;5.53;5.03;;;32.60;56.60;;;;;;5048056;28;20529;-73
2021/07/12 12:55:11;;;;;;;4.78;4.22;;;33.70;56.20;;;;;;5048884;28;20021;-74
2021/07/12 12:57:38;;;;;;;4.72;4.32;;;34.50;51.90;;;;;;5045993;28;20387;-74